createdAt,value
2018-09-16T00:01:20.530Z,15.90
2018-09-16T00:03:25.147Z,15.90
2018-09-16T00:05:28.739Z,16.30
2018-09-16T00:07:32.391Z,16.30
2018-09-16T00:09:35.981Z,16.20
2018-09-16T00:11:39.938Z,16.10
2018-09-16T00:13:43.438Z,16.20
2018-09-16T00:15:47.223Z,16.30
2018-09-16T00:17:50.907Z,16.30
2018-09-16T00:19:54.620Z,16.30
2018-09-16T00:21:58.184Z,16.30
2018-09-16T00:24:01.805Z,16.10
2018-09-16T00:26:05.352Z,15.90
2018-09-16T00:28:08.928Z,16.10
2018-09-16T00:30:12.701Z,16.30
2018-09-16T00:32:21.394Z,15.80
2018-09-16T00:34:24.958Z,15.90
2018-09-16T00:36:28.769Z,16.20
2018-09-16T00:38:32.497Z,16.40
2018-09-16T00:40:36.215Z,16.40
2018-09-16T00:42:39.807Z,16.20
2018-09-16T00:44:43.495Z,15.80
2018-09-16T00:46:47.125Z,15.60
2018-09-16T00:48:50.796Z,15.50
2018-09-16T00:50:54.372Z,15.60
2018-09-16T00:52:57.871Z,15.50
2018-09-16T00:55:01.403Z,15.80
2018-09-16T00:57:04.998Z,16.10
2018-09-16T00:59:08.535Z,16.40
2018-09-16T01:01:12.104Z,16.60
2018-09-16T01:03:15.729Z,16.70
2018-09-16T01:05:19.395Z,16.70
2018-09-16T01:07:22.915Z,16.40
2018-09-16T01:09:26.579Z,16.50
2018-09-16T01:11:31.159Z,16.40
2018-09-16T01:13:34.683Z,16.40
2018-09-16T01:15:38.200Z,16.40
2018-09-16T01:17:41.799Z,16.50
2018-09-16T01:19:46.579Z,16.60
2018-09-16T01:21:50.135Z,16.80
2018-09-16T01:23:53.816Z,16.80
2018-09-16T01:25:57.475Z,16.60
2018-09-16T01:28:01.093Z,16.60
2018-09-16T01:30:05.192Z,16.60
2018-09-16T01:32:08.851Z,16.50
2018-09-16T01:34:12.407Z,16.60
2018-09-16T01:36:15.954Z,16.50
2018-09-16T01:38:23.238Z,16.30
2018-09-16T01:40:26.949Z,16.50
2018-09-16T01:42:30.506Z,16.50
2018-09-16T01:44:34.141Z,16.60
2018-09-16T01:46:37.772Z,16.80
2018-09-16T01:48:41.471Z,16.80
2018-09-16T01:50:45.061Z,16.90
2018-09-16T01:52:48.634Z,16.60
2018-09-16T01:54:52.395Z,16.50
2018-09-16T01:56:55.929Z,16.30
2018-09-16T01:58:59.606Z,16.20
2018-09-16T02:01:03.215Z,16.40
2018-09-16T02:03:07.053Z,16.40
2018-09-16T02:05:10.617Z,16.40
2018-09-16T02:07:14.263Z,16.30
2018-09-16T02:09:17.843Z,16.10
2018-09-16T02:11:21.347Z,16.00
2018-09-16T02:13:25.055Z,16.10
2018-09-16T02:15:28.862Z,16.30
2018-09-16T02:17:32.374Z,16.20
2018-09-16T02:19:36.037Z,16.40
2018-09-16T02:21:40.939Z,16.50
2018-09-16T02:23:44.450Z,16.40
2018-09-16T02:25:48.113Z,16.30
2018-09-16T02:27:51.671Z,15.90
2018-09-16T02:29:55.248Z,15.70
2018-09-16T02:31:58.927Z,15.80
2018-09-16T02:34:02.472Z,15.90
2018-09-16T02:36:06.227Z,15.90
2018-09-16T02:38:09.719Z,15.50
2018-09-16T02:40:13.444Z,15.40
2018-09-16T02:42:17.032Z,15.50
2018-09-16T02:44:20.724Z,15.40
2018-09-16T02:46:24.297Z,15.60
2018-09-16T02:48:28.147Z,15.80
2018-09-16T02:50:31.694Z,15.40
2018-09-16T02:52:35.787Z,14.90
2018-09-16T02:54:39.283Z,15.10
2018-09-16T02:56:42.927Z,15.40
2018-09-16T02:58:46.500Z,15.60
2018-09-16T03:00:50.600Z,15.70
2018-09-16T03:02:54.088Z,15.60
2018-09-16T03:04:57.605Z,15.70
2018-09-16T03:07:01.339Z,15.70
2018-09-16T03:09:06.134Z,15.40
2018-09-16T03:11:09.643Z,15.40
2018-09-16T03:13:13.588Z,15.70
2018-09-16T03:15:17.284Z,15.90
2018-09-16T03:17:20.884Z,15.60
2018-09-16T03:19:24.456Z,15.20
2018-09-16T03:21:28.000Z,15.40
2018-09-16T03:23:31.569Z,15.50
2018-09-16T03:25:35.125Z,15.50
2018-09-16T03:27:38.678Z,15.60
2018-09-16T03:29:42.253Z,15.20
2018-09-16T03:31:46.075Z,15.10
2018-09-16T03:33:49.583Z,15.20
2018-09-16T03:35:53.105Z,14.80
2018-09-16T03:37:56.748Z,15.10
2018-09-16T03:40:00.284Z,15.30
2018-09-16T03:42:05.580Z,15.40
2018-09-16T03:44:09.128Z,15.10
2018-09-16T03:46:13.007Z,14.90
2018-09-16T03:48:16.519Z,16.10
2018-09-16T03:50:20.248Z,15.00
2018-09-16T03:52:23.785Z,15.00
2018-09-16T03:54:27.494Z,14.50
2018-09-16T03:56:31.041Z,14.20
2018-09-16T03:58:34.764Z,14.40
2018-09-16T04:00:38.324Z,14.10
2018-09-16T04:02:41.861Z,14.10
2018-09-16T04:04:45.500Z,14.30
2018-09-16T04:06:49.061Z,14.40
2018-09-16T04:08:52.595Z,14.60
2018-09-16T04:10:56.098Z,14.40
2018-09-16T04:12:59.615Z,14.20
2018-09-16T04:15:03.328Z,12.60
2018-09-16T04:17:07.040Z,14.50
2018-09-16T04:19:10.662Z,14.80
2018-09-16T04:21:14.411Z,14.50
2018-09-16T04:23:18.044Z,14.40
2018-09-16T04:25:21.654Z,14.50
2018-09-16T04:27:25.156Z,14.80
2018-09-16T04:29:28.701Z,15.10
2018-09-16T04:31:32.170Z,15.20
2018-09-16T04:33:35.785Z,15.20
2018-09-16T04:35:39.290Z,15.30
2018-09-16T04:37:42.905Z,15.40
2018-09-16T04:39:46.410Z,15.00
2018-09-16T04:41:49.956Z,15.10
2018-09-16T04:43:53.502Z,15.10
2018-09-16T04:45:57.035Z,15.10
2018-09-16T04:48:00.649Z,14.50
2018-09-16T04:50:04.812Z,14.20
2018-09-16T04:52:08.321Z,13.90
2018-09-16T04:54:11.843Z,14.30
2018-09-16T04:56:15.608Z,14.50
2018-09-16T04:58:19.323Z,14.40
2018-09-16T05:00:22.892Z,14.50
2018-09-16T05:02:29.646Z,14.70
2018-09-16T05:04:33.180Z,14.60
2018-09-16T05:06:36.826Z,14.60
2018-09-16T05:08:40.520Z,14.60
2018-09-16T05:10:44.067Z,14.80
2018-09-16T05:12:47.597Z,14.90
2018-09-16T05:14:51.151Z,15.00
2018-09-16T05:16:54.890Z,14.60
2018-09-16T05:18:58.428Z,14.40
2018-09-16T05:21:01.975Z,14.20
2018-09-16T05:23:05.652Z,14.40
2018-09-16T05:25:09.209Z,14.60
2018-09-16T05:27:12.860Z,14.70
2018-09-16T05:29:19.351Z,14.70
2018-09-16T05:31:23.725Z,14.60
2018-09-16T05:33:27.212Z,14.80
2018-09-16T05:35:30.715Z,14.80
2018-09-16T05:37:34.259Z,14.70
2018-09-16T05:39:37.783Z,14.90
2018-09-16T05:41:41.300Z,14.80
2018-09-16T05:43:44.957Z,14.40
2018-09-16T05:45:48.596Z,14.30
2018-09-16T05:47:52.079Z,13.70
2018-09-16T05:49:55.640Z,14.30
2018-09-16T05:52:05.785Z,14.70
2018-09-16T05:54:09.384Z,15.00
2018-09-16T05:56:13.094Z,15.20
2018-09-16T05:58:16.852Z,15.30
2018-09-16T06:00:21.506Z,15.40
2018-09-16T06:02:25.036Z,15.50
2018-09-16T06:04:28.679Z,15.60
2018-09-16T06:06:32.195Z,15.70
2018-09-16T06:08:36.037Z,15.10
2018-09-16T06:10:39.639Z,15.20
2018-09-16T06:12:43.185Z,15.30
2018-09-16T06:14:46.756Z,15.50
2018-09-16T06:16:50.337Z,15.50
2018-09-16T06:18:54.026Z,15.80
2018-09-16T06:20:57.645Z,15.70
2018-09-16T06:23:01.188Z,15.80
2018-09-16T06:25:04.964Z,15.90
2018-09-16T06:27:08.546Z,15.90
2018-09-16T06:29:12.154Z,15.40
2018-09-16T06:31:15.877Z,15.50
2018-09-16T06:33:19.626Z,15.30
2018-09-16T06:35:23.155Z,15.30
2018-09-16T06:37:26.900Z,15.60
2018-09-16T06:39:31.189Z,15.90
2018-09-16T06:41:34.828Z,16.00
2018-09-16T06:43:38.449Z,16.00
2018-09-16T06:45:41.987Z,16.00
2018-09-16T06:47:45.645Z,15.80
2018-09-16T06:49:49.169Z,15.30
2018-09-16T06:51:52.901Z,15.40
2018-09-16T06:53:56.747Z,15.60
2018-09-16T06:56:00.329Z,16.10
2018-09-16T06:58:03.940Z,15.40
2018-09-16T07:00:08.147Z,15.70
2018-09-16T07:02:11.703Z,16.20
2018-09-16T07:04:15.275Z,16.20
2018-09-16T07:06:19.022Z,16.40
2018-09-16T07:08:22.969Z,16.50
2018-09-16T07:10:26.462Z,16.20
2018-09-16T07:12:30.188Z,16.30
2018-09-16T07:14:33.760Z,18.50
2018-09-16T07:16:37.832Z,17.00
2018-09-16T07:18:41.682Z,16.90
2018-09-16T07:20:45.223Z,17.40
2018-09-16T07:22:48.945Z,17.30
2018-09-16T07:24:52.598Z,17.50
2018-09-16T07:26:56.399Z,17.50
2018-09-16T07:28:59.933Z,17.20
2018-09-16T07:31:03.511Z,17.70
2018-09-16T07:33:07.377Z,18.10
2018-09-16T07:35:10.895Z,18.40
2018-09-16T07:37:14.483Z,18.60
2018-09-16T07:39:18.195Z,18.70
2018-09-16T07:41:21.781Z,18.80
2018-09-16T07:43:25.427Z,18.70
2018-09-16T07:45:29.064Z,18.80
2018-09-16T07:47:32.762Z,19.00
2018-09-16T07:49:36.269Z,19.10
2018-09-16T07:51:39.959Z,19.10
2018-09-16T07:53:43.510Z,19.10
2018-09-16T07:55:47.031Z,19.20
2018-09-16T07:57:50.616Z,19.30
2018-09-16T07:59:54.312Z,19.30
2018-09-16T08:01:57.814Z,19.40
2018-09-16T08:04:01.347Z,19.50
2018-09-16T08:06:05.056Z,19.40
2018-09-16T08:08:08.559Z,19.20
2018-09-16T08:10:12.352Z,19.40
2018-09-16T08:12:16.012Z,19.60
2018-09-16T08:14:19.563Z,19.70
2018-09-16T08:16:23.113Z,19.50
2018-09-16T08:18:26.868Z,19.80
2018-09-16T08:20:30.500Z,19.90
2018-09-16T08:22:34.079Z,20.00
2018-09-16T08:24:44.305Z,20.10
2018-09-16T08:26:47.988Z,20.10
2018-09-16T08:28:51.958Z,19.90
2018-09-16T08:30:55.523Z,20.10
2018-09-16T08:32:59.067Z,20.20
2018-09-16T08:35:02.675Z,20.20
2018-09-16T08:37:06.303Z,20.30
2018-09-16T08:39:11.428Z,20.50
2018-09-16T08:41:15.049Z,20.50
2018-09-16T08:43:18.684Z,20.50
2018-09-16T08:45:22.241Z,20.50
2018-09-16T08:47:25.799Z,20.70
2018-09-16T08:49:29.535Z,20.80
2018-09-16T08:51:33.139Z,20.80
2018-09-16T08:53:36.858Z,20.90
2018-09-16T08:55:40.681Z,21.00
2018-09-16T08:57:44.648Z,21.00
2018-09-16T08:59:48.296Z,20.90
2018-09-16T09:01:51.926Z,21.10
2018-09-16T09:03:55.473Z,21.10
2018-09-16T09:05:59.021Z,21.30
2018-09-16T09:08:02.547Z,21.40
2018-09-16T09:10:06.160Z,21.40
2018-09-16T09:12:09.671Z,21.30
2018-09-16T09:14:13.194Z,21.40
2018-09-16T09:16:16.749Z,21.40
2018-09-16T09:18:20.550Z,21.20
2018-09-16T09:20:24.077Z,21.10
2018-09-16T09:22:27.643Z,21.20
2018-09-16T09:24:31.194Z,21.40
2018-09-16T09:26:35.036Z,21.50
2018-09-16T09:28:38.567Z,21.70
2018-09-16T09:30:42.050Z,21.30
2018-09-16T09:32:45.707Z,20.50
2018-09-16T09:34:49.218Z,20.80
2018-09-16T09:36:52.779Z,21.10
2018-09-16T09:38:56.288Z,21.50
2018-09-16T09:40:59.911Z,21.50
2018-09-16T09:43:03.642Z,21.80
2018-09-16T09:45:07.396Z,22.10
2018-09-16T09:47:10.908Z,22.30
2018-09-16T09:49:16.295Z,22.50
2018-09-16T09:51:19.846Z,22.20
2018-09-16T09:53:23.587Z,22.20
2018-09-16T09:55:27.411Z,22.40
2018-09-16T09:57:31.110Z,22.40
2018-09-16T09:59:34.683Z,22.60
2018-09-16T10:01:38.233Z,22.30
2018-09-16T10:03:41.957Z,22.30
2018-09-16T10:05:45.887Z,22.20
2018-09-16T10:07:49.498Z,22.40
2018-09-16T10:09:53.080Z,22.60
2018-09-16T10:11:56.657Z,22.00
2018-09-16T10:14:00.200Z,22.40
2018-09-16T10:16:03.833Z,22.60
2018-09-16T10:18:07.945Z,22.30
2018-09-16T10:20:11.611Z,22.20
2018-09-16T10:22:15.221Z,22.40
2018-09-16T10:24:19.043Z,22.60
2018-09-16T10:26:22.682Z,22.90
2018-09-16T10:28:26.218Z,22.40
2018-09-16T10:30:31.222Z,22.70
2018-09-16T10:32:34.954Z,22.70
2018-09-16T10:34:38.590Z,22.70
2018-09-16T10:36:42.208Z,23.00
2018-09-16T10:38:45.763Z,23.20
2018-09-16T10:40:49.397Z,23.10
2018-09-16T10:42:53.136Z,23.20
2018-09-16T10:44:56.733Z,22.80
2018-09-16T10:47:00.359Z,22.80
2018-09-16T10:49:04.132Z,22.50
2018-09-16T10:51:07.687Z,23.10
2018-09-16T10:53:11.325Z,23.30
2018-09-16T10:55:14.877Z,23.10
2018-09-16T10:57:18.477Z,22.90
2018-09-16T10:59:22.055Z,23.20
2018-09-16T11:01:25.740Z,22.20
2018-09-16T11:03:29.765Z,22.70
2018-09-16T11:05:33.288Z,23.00
2018-09-16T11:07:36.905Z,23.20
2018-09-16T11:09:40.459Z,23.30
2018-09-16T11:11:43.985Z,23.70
2018-09-16T11:13:47.572Z,23.50
2018-09-16T11:15:51.171Z,23.10
2018-09-16T11:17:54.736Z,23.30
2018-09-16T11:19:58.275Z,23.60
2018-09-16T11:22:02.026Z,23.80
2018-09-16T11:24:05.603Z,23.50
2018-09-16T11:26:09.215Z,23.80
2018-09-16T11:28:12.805Z,23.50
2018-09-16T11:30:16.299Z,23.70
2018-09-16T11:32:20.040Z,23.90
2018-09-16T11:34:23.558Z,23.80
2018-09-16T11:36:27.067Z,23.80
2018-09-16T11:38:30.575Z,23.40
2018-09-16T11:40:34.273Z,23.50
2018-09-16T11:42:37.808Z,23.70
2018-09-16T11:44:41.377Z,23.70
2018-09-16T11:46:45.024Z,23.80
2018-09-16T11:48:48.691Z,24.00
2018-09-16T11:50:52.580Z,24.10
2018-09-16T11:52:56.218Z,24.20
2018-09-16T11:54:59.760Z,24.20
2018-09-16T11:57:03.379Z,24.40
2018-09-16T11:59:06.960Z,23.90
2018-09-16T12:01:10.648Z,24.10
2018-09-16T12:03:15.627Z,24.10
2018-09-16T12:05:19.352Z,24.30
2018-09-16T12:07:22.824Z,24.50
2018-09-16T12:09:26.360Z,24.20
2018-09-16T12:11:29.906Z,24.10
2018-09-16T12:13:33.557Z,24.50
2018-09-16T12:15:37.190Z,24.80
2018-09-16T12:17:40.771Z,24.70
2018-09-16T12:19:44.426Z,24.40
2018-09-16T12:21:48.099Z,24.60
2018-09-16T12:23:51.604Z,24.60
2018-09-16T12:25:55.103Z,24.50
2018-09-16T12:27:58.635Z,24.60
2018-09-16T12:30:02.169Z,24.80
2018-09-16T12:32:05.797Z,24.60
2018-09-16T12:34:09.303Z,25.00
2018-09-16T12:36:12.861Z,24.80
2018-09-16T12:38:16.341Z,24.80
2018-09-16T12:40:19.888Z,24.10
2018-09-16T12:42:23.773Z,24.20
2018-09-16T12:44:27.477Z,24.20
2018-09-16T12:46:31.189Z,24.60
2018-09-16T12:48:34.691Z,25.00
2018-09-16T12:50:38.511Z,25.30
2018-09-16T12:52:42.115Z,25.30
2018-09-16T12:54:45.800Z,25.50
2018-09-16T12:56:49.619Z,25.30
2018-09-16T12:58:53.115Z,25.30
2018-09-16T13:00:56.642Z,25.50
2018-09-16T13:03:00.260Z,25.60
2018-09-16T13:05:03.983Z,25.60
2018-09-16T13:07:07.551Z,25.20
2018-09-16T13:09:12.165Z,25.10
2018-09-16T13:11:15.752Z,25.20
2018-09-16T13:13:19.376Z,25.10
2018-09-16T13:15:22.930Z,25.20
2018-09-16T13:17:26.476Z,25.40
2018-09-16T13:19:30.123Z,25.40
2018-09-16T13:21:33.769Z,26.60
2018-09-16T13:23:38.356Z,25.50
2018-09-16T13:25:42.031Z,25.60
2018-09-16T13:27:45.601Z,25.80
2018-09-16T13:29:49.242Z,26.00
2018-09-16T13:31:52.918Z,26.00
2018-09-16T13:33:56.531Z,25.90
2018-09-16T13:36:00.206Z,25.80
2018-09-16T13:38:03.907Z,25.90
2018-09-16T13:40:07.635Z,26.00
2018-09-16T13:42:11.189Z,25.80
2018-09-16T13:44:14.723Z,25.30
2018-09-16T13:46:18.311Z,25.80
2018-09-16T13:48:21.816Z,25.60
2018-09-16T13:50:25.368Z,25.80
2018-09-16T13:52:28.924Z,25.90
2018-09-16T13:54:32.643Z,26.10
2018-09-16T13:56:36.228Z,26.20
2018-09-16T13:58:39.840Z,26.00
2018-09-16T14:00:43.387Z,25.90
2018-09-16T14:02:46.916Z,25.90
2018-09-16T14:04:50.434Z,26.10
2018-09-16T14:06:53.933Z,26.20
2018-09-16T14:08:57.531Z,26.10
2018-09-16T14:11:01.077Z,25.20
2018-09-16T14:13:04.579Z,25.60
2018-09-16T14:15:09.527Z,25.80
2018-09-16T14:17:13.068Z,25.90
2018-09-16T14:19:16.653Z,26.20
2018-09-16T14:21:20.169Z,26.40
2018-09-16T14:23:23.698Z,26.00
2018-09-16T14:25:27.198Z,26.00
2018-09-16T14:27:30.767Z,25.90
2018-09-16T14:29:34.339Z,25.80
2018-09-16T14:31:37.852Z,25.90
2018-09-16T14:33:41.397Z,26.00
2018-09-16T14:35:45.132Z,26.20
2018-09-16T14:37:48.651Z,26.30
2018-09-16T14:39:52.224Z,26.30
2018-09-16T14:41:55.888Z,25.90
2018-09-16T14:43:59.420Z,25.40
2018-09-16T14:46:02.966Z,25.80
2018-09-16T14:48:06.491Z,26.00
2018-09-16T14:50:10.492Z,26.20
2018-09-16T14:52:13.992Z,26.50
2018-09-16T14:54:17.696Z,26.30
2018-09-16T14:56:22.183Z,26.20
2018-09-16T14:58:25.746Z,26.10
2018-09-16T15:00:29.264Z,26.30
2018-09-16T15:02:32.820Z,26.20
2018-09-16T15:04:36.512Z,26.40
2018-09-16T15:06:40.104Z,26.30
2018-09-16T15:08:43.709Z,25.90
2018-09-16T15:10:48.333Z,25.60
2018-09-16T15:12:51.865Z,25.90
2018-09-16T15:14:55.567Z,26.10
2018-09-16T15:16:59.329Z,26.20
2018-09-16T15:19:02.864Z,26.50
2018-09-16T15:21:06.471Z,26.40
2018-09-16T15:23:10.074Z,26.30
2018-09-16T15:25:13.614Z,26.60
2018-09-16T15:27:17.164Z,26.50
2018-09-16T15:29:20.750Z,26.70
2018-09-16T15:31:24.348Z,26.80
2018-09-16T15:33:27.979Z,26.80
2018-09-16T15:35:33.693Z,26.90
2018-09-16T15:37:37.237Z,26.70
2018-09-16T15:39:40.963Z,26.70
2018-09-16T15:41:44.481Z,26.80
2018-09-16T15:43:48.037Z,26.80
2018-09-16T15:45:51.607Z,26.80
2018-09-16T15:47:55.428Z,26.80
2018-09-16T15:49:58.999Z,26.70
2018-09-16T15:52:02.635Z,26.70
2018-09-16T15:54:06.188Z,26.80
2018-09-16T15:56:09.726Z,26.80
2018-09-16T15:58:13.291Z,26.50
2018-09-16T16:00:17.118Z,26.20
2018-09-16T16:02:20.745Z,26.40
2018-09-16T16:04:24.266Z,26.00
2018-09-16T16:06:27.913Z,26.20
2018-09-16T16:08:31.421Z,26.40
2018-09-16T16:10:35.037Z,26.50
2018-09-16T16:12:38.544Z,26.40
2018-09-16T16:14:42.141Z,26.30
2018-09-16T16:16:46.756Z,26.30
2018-09-16T16:18:50.432Z,26.50
2018-09-16T16:20:54.057Z,26.70
2018-09-16T16:22:57.613Z,26.70
2018-09-16T16:25:01.285Z,26.70
2018-09-16T16:27:04.825Z,26.50
2018-09-16T16:29:08.842Z,26.60
2018-09-16T16:31:12.428Z,26.60
2018-09-16T16:33:15.958Z,26.40
2018-09-16T16:35:19.694Z,26.50
2018-09-16T16:37:23.235Z,26.40
2018-09-16T16:39:26.786Z,26.50
2018-09-16T16:41:30.395Z,26.20
2018-09-16T16:43:33.983Z,26.20
2018-09-16T16:45:37.464Z,26.30
2018-09-16T16:47:41.011Z,26.40
2018-09-16T16:49:44.727Z,26.40
2018-09-16T16:51:48.288Z,26.30
2018-09-16T16:53:51.876Z,26.30
2018-09-16T16:55:55.646Z,26.30
2018-09-16T16:57:59.291Z,26.30
2018-09-16T17:00:03.405Z,26.20
2018-09-16T17:02:07.024Z,26.00
2018-09-16T17:04:10.686Z,26.00
2018-09-16T17:06:14.432Z,25.90
2018-09-16T17:08:20.011Z,25.80
2018-09-16T17:10:23.586Z,25.80
2018-09-16T17:12:27.138Z,25.70
2018-09-16T17:14:30.723Z,25.70
2018-09-16T17:16:34.287Z,25.60
2018-09-16T17:18:38.032Z,25.60
2018-09-16T17:20:41.584Z,25.60
2018-09-16T17:22:45.267Z,25.50
2018-09-16T17:24:48.841Z,25.40
2018-09-16T17:26:52.627Z,25.30
2018-09-16T17:28:56.262Z,25.30
2018-09-16T17:30:59.808Z,25.30
2018-09-16T17:33:03.340Z,25.20
2018-09-16T17:35:06.909Z,25.20
2018-09-16T17:37:10.428Z,25.00
2018-09-16T17:39:14.094Z,25.00
2018-09-16T17:41:17.824Z,24.90
2018-09-16T17:43:21.366Z,24.90
2018-09-16T17:45:24.916Z,24.80
2018-09-16T17:47:28.654Z,24.80
2018-09-16T17:49:32.420Z,24.80
2018-09-16T17:51:36.214Z,24.70
2018-09-16T17:53:40.051Z,24.80
2018-09-16T17:55:43.581Z,24.70
2018-09-16T17:57:47.110Z,24.70
2018-09-16T17:59:50.755Z,24.60
2018-09-16T18:01:54.304Z,24.60
2018-09-16T18:03:58.185Z,24.50
2018-09-16T18:06:01.903Z,24.40
2018-09-16T18:08:05.509Z,24.40
2018-09-16T18:10:09.119Z,24.40
2018-09-16T18:12:12.675Z,24.40
2018-09-16T18:14:16.512Z,24.40
2018-09-16T18:16:20.160Z,24.40
2018-09-16T18:18:25.088Z,24.30
2018-09-16T18:20:28.678Z,24.20
2018-09-16T18:22:32.302Z,24.10
2018-09-16T18:24:35.843Z,23.80
2018-09-16T18:26:39.643Z,23.70
2018-09-16T18:28:46.208Z,23.70
2018-09-16T18:30:49.940Z,23.70
2018-09-16T18:32:53.605Z,23.70
2018-09-16T18:34:57.208Z,23.70
2018-09-16T18:37:00.768Z,23.70
2018-09-16T18:39:06.356Z,23.70
2018-09-16T18:41:10.179Z,23.70
2018-09-16T18:43:13.771Z,23.70
2018-09-16T18:45:17.375Z,23.50
2018-09-16T18:47:21.023Z,23.50
2018-09-16T18:49:24.568Z,23.50
2018-09-16T18:51:28.250Z,23.50
2018-09-16T18:53:31.918Z,23.30
2018-09-16T18:55:35.656Z,23.40
2018-09-16T18:57:39.239Z,23.40
2018-09-16T18:59:42.817Z,23.30
2018-09-16T19:01:46.368Z,22.90
2018-09-16T19:03:51.380Z,22.70
2018-09-16T19:05:54.989Z,22.60
2018-09-16T19:07:58.753Z,22.50
2018-09-16T19:10:02.353Z,22.70
2018-09-16T19:12:06.104Z,22.80
2018-09-16T19:14:09.785Z,22.90
2018-09-16T19:16:13.422Z,23.00
2018-09-16T19:18:17.125Z,23.00
2018-09-16T19:20:20.694Z,22.90
2018-09-16T19:22:24.448Z,22.70
2018-09-16T19:24:28.636Z,22.70
2018-09-16T19:26:32.601Z,22.70
2018-09-16T19:28:36.272Z,22.80
2018-09-16T19:30:39.908Z,22.80
2018-09-16T19:32:43.512Z,22.80
2018-09-16T19:34:47.238Z,22.80
2018-09-16T19:36:50.984Z,22.80
2018-09-16T19:38:54.553Z,22.80
2018-09-16T19:40:58.260Z,22.70
2018-09-16T19:43:01.948Z,22.40
2018-09-16T19:45:07.944Z,22.40
2018-09-16T19:47:11.776Z,22.40
2018-09-16T19:49:15.469Z,22.50
2018-09-16T19:51:19.357Z,22.50
2018-09-16T19:53:23.120Z,22.40
2018-09-16T19:55:26.685Z,22.50
2018-09-16T19:57:30.309Z,22.40
2018-09-16T19:59:33.903Z,22.50
2018-09-16T20:01:37.488Z,22.40
2018-09-16T20:03:41.197Z,22.30
2018-09-16T20:05:45.252Z,22.40
2018-09-16T20:07:48.871Z,22.40
2018-09-16T20:09:52.500Z,22.40
2018-09-16T20:11:56.097Z,22.40
2018-09-16T20:13:59.872Z,22.40
2018-09-16T20:16:03.467Z,22.40
2018-09-16T20:18:07.207Z,22.40
2018-09-16T20:20:10.734Z,22.30
2018-09-16T20:22:14.815Z,22.10
2018-09-16T20:24:18.505Z,23.10
2018-09-16T20:26:22.184Z,21.90
2018-09-16T20:28:25.815Z,22.00
2018-09-16T20:30:29.388Z,22.00
2018-09-16T20:32:33.123Z,22.00
2018-09-16T20:34:36.692Z,21.90
2018-09-16T20:36:40.528Z,21.70
2018-09-16T20:38:44.367Z,21.50
2018-09-16T20:40:48.008Z,21.20
2018-09-16T20:42:51.686Z,21.30
2018-09-16T20:44:55.319Z,21.20
2018-09-16T20:46:58.907Z,21.20
2018-09-16T20:49:02.522Z,21.20
2018-09-16T20:51:06.278Z,21.00
2018-09-16T20:53:10.604Z,20.90
2018-09-16T20:55:14.174Z,21.10
2018-09-16T20:57:17.906Z,21.30
2018-09-16T20:59:21.441Z,21.30
2018-09-16T21:01:25.735Z,21.30
2018-09-16T21:03:29.362Z,21.20
2018-09-16T21:05:32.938Z,20.90
2018-09-16T21:07:36.589Z,20.50
2018-09-16T21:09:47.165Z,20.60
2018-09-16T21:11:50.733Z,20.80
2018-09-16T21:13:54.359Z,20.90
2018-09-16T21:15:58.015Z,21.00
2018-09-16T21:18:01.784Z,21.10
2018-09-16T21:20:05.397Z,21.10
2018-09-16T21:22:09.688Z,21.10
2018-09-16T21:24:13.348Z,21.10
2018-09-16T21:26:16.967Z,21.10
2018-09-16T21:28:20.437Z,21.10
2018-09-16T21:30:23.992Z,20.90
2018-09-16T21:32:27.521Z,20.80
2018-09-16T21:34:31.164Z,20.80
2018-09-16T21:36:34.786Z,20.80
2018-09-16T21:38:38.348Z,20.80
2018-09-16T21:40:42.025Z,20.80
2018-09-16T21:42:45.604Z,20.90
2018-09-16T21:44:49.408Z,20.90
2018-09-16T21:46:53.125Z,20.80
2018-09-16T21:48:56.683Z,20.90
2018-09-16T21:51:00.323Z,20.90
2018-09-16T21:53:03.866Z,20.40
2018-09-16T21:55:07.667Z,20.30
2018-09-16T21:57:11.206Z,20.20
2018-09-16T21:59:14.739Z,20.30
2018-09-16T22:01:18.506Z,20.30
2018-09-16T22:03:24.060Z,20.20
2018-09-16T22:05:27.673Z,20.30
2018-09-16T22:07:31.216Z,20.40
2018-09-16T22:09:34.785Z,20.10
2018-09-16T22:11:38.302Z,20.00
2018-09-16T22:13:41.917Z,20.10
2018-09-16T22:15:45.429Z,20.10
2018-09-16T22:17:49.191Z,19.80
2018-09-16T22:19:52.790Z,19.60
2018-09-16T22:21:56.419Z,19.70
2018-09-16T22:23:59.976Z,19.50
2018-09-16T22:26:03.556Z,19.60
2018-09-16T22:28:07.133Z,19.50
2018-09-16T22:30:10.758Z,19.10
2018-09-16T22:32:14.310Z,19.10
2018-09-16T22:34:17.885Z,19.20
2018-09-16T22:36:21.445Z,19.40
2018-09-16T22:38:25.224Z,19.60
2018-09-16T22:40:28.928Z,19.70
2018-09-16T22:42:33.191Z,19.50
2018-09-16T22:44:36.884Z,19.10
2018-09-16T22:46:40.418Z,19.00
2018-09-16T22:48:43.972Z,19.30
2018-09-16T22:50:47.512Z,19.30
2018-09-16T22:52:51.127Z,19.20
2018-09-16T22:54:54.682Z,19.50
2018-09-16T22:56:58.426Z,19.40
2018-09-16T22:59:02.001Z,19.50
2018-09-16T23:01:05.599Z,19.20
2018-09-16T23:03:09.172Z,19.20
2018-09-16T23:05:12.683Z,19.40
2018-09-16T23:07:16.723Z,19.40
2018-09-16T23:09:20.271Z,19.40
2018-09-16T23:11:24.244Z,19.50
2018-09-16T23:13:27.844Z,19.50
2018-09-16T23:15:31.387Z,19.40
2018-09-16T23:17:34.983Z,19.30
2018-09-16T23:19:38.635Z,19.50
2018-09-16T23:21:42.192Z,19.70
2018-09-16T23:23:45.959Z,19.70
2018-09-16T23:25:49.797Z,19.70
2018-09-16T23:27:53.391Z,19.50
2018-09-16T23:29:57.046Z,19.50
2018-09-16T23:32:00.613Z,19.60
2018-09-16T23:34:04.196Z,19.70
2018-09-16T23:36:07.869Z,19.50
2018-09-16T23:38:11.393Z,19.50
2018-09-16T23:40:14.968Z,19.60
2018-09-16T23:42:18.476Z,19.60
2018-09-16T23:44:22.211Z,19.60
2018-09-16T23:46:25.887Z,19.50
2018-09-16T23:48:29.489Z,19.50
2018-09-16T23:50:33.131Z,19.50
2018-09-16T23:52:36.665Z,19.60
2018-09-16T23:54:40.223Z,19.60
2018-09-16T23:56:43.885Z,19.60
2018-09-16T23:58:47.772Z,19.70
